createdAt,value
2023-02-17T07:22:15.108Z,5.93
2023-02-17T07:24:42.526Z,6.63
2023-02-17T07:27:10.822Z,4.75
2023-02-17T07:29:38.019Z,6.60
2023-02-17T07:32:06.543Z,8.75
2023-02-17T07:34:33.594Z,12.73
2023-02-17T07:37:00.575Z,9.77
2023-02-17T07:39:27.606Z,13.70
2023-02-17T07:41:54.665Z,13.63
2023-02-17T07:44:21.792Z,13.87
2023-02-17T07:46:48.775Z,8.80
2023-02-17T07:49:16.063Z,10.20
2023-02-17T07:51:43.351Z,11.02
2023-02-17T07:54:10.509Z,13.48
2023-02-17T07:56:37.766Z,11.40
2023-02-17T07:59:04.830Z,10.07
2023-02-17T08:01:31.842Z,8.98
2023-02-17T08:04:02.075Z,9.80
2023-02-17T08:06:29.159Z,11.77
2023-02-17T08:09:15.075Z,10.05
2023-02-17T08:12:01.341Z,7.63
2023-02-17T08:14:29.482Z,7.32
2023-02-17T08:16:57.118Z,6.18
2023-02-17T08:19:27.219Z,7.45
2023-02-17T08:21:57.266Z,9.70
2023-02-17T08:24:24.726Z,6.38
2023-02-17T08:26:51.983Z,7.68
2023-02-17T08:29:20.388Z,10.95
2023-02-17T08:31:48.958Z,10.82
2023-02-17T08:34:16.165Z,10.27
2023-02-17T08:36:43.267Z,7.30
2023-02-17T08:39:15.179Z,9.63
2023-02-17T08:41:42.724Z,9.10
2023-02-17T08:44:14.615Z,11.18
2023-02-17T08:46:46.287Z,8.33
2023-02-17T08:55:24.656Z,8.30
2023-02-17T08:57:51.793Z,7.60
2023-02-17T09:00:19.014Z,5.68
2023-02-17T09:02:46.059Z,6.82
2023-02-17T09:05:15.039Z,7.50
2023-02-17T09:07:42.160Z,8.77
2023-02-17T09:10:09.535Z,8.63
2023-02-17T09:12:36.617Z,9.67
2023-02-17T09:15:03.803Z,7.90
2023-02-17T09:17:31.042Z,12.27
2023-02-17T09:28:38.478Z,7.43
2023-02-17T09:31:16.928Z,8.13
2023-02-17T09:33:44.238Z,8.38
2023-02-17T09:36:12.925Z,6.83
2023-02-17T09:42:28.858Z,9.90
2023-02-17T09:45:04.029Z,10.93
2023-02-17T09:47:54.666Z,10.23
2023-02-17T09:50:40.754Z,9.23
2023-02-17T09:53:18.798Z,11.55
2023-02-17T09:55:48.562Z,10.55
2023-02-17T09:58:18.678Z,14.35
2023-02-17T10:00:51.131Z,12.07
2023-02-17T10:03:18.706Z,10.88
2023-02-17T10:06:12.135Z,8.75
2023-02-17T10:08:57.550Z,12.13
2023-02-17T10:11:30.795Z,10.38
2023-02-17T10:13:59.662Z,11.10
2023-02-17T10:16:32.459Z,10.03
2023-02-17T10:22:29.063Z,17.10
2023-02-17T10:24:57.843Z,9.65
2023-02-17T10:27:25.781Z,8.95
2023-02-17T10:30:11.832Z,11.40
2023-02-17T10:33:00.885Z,6.47
2023-02-17T10:35:33.753Z,5.50
2023-02-17T10:38:15.184Z,5.00
2023-02-17T10:40:42.519Z,5.65
2023-02-17T10:43:10.050Z,8.80
2023-02-17T10:45:57.815Z,7.40
2023-02-17T10:48:29.204Z,6.65
2023-02-17T10:50:59.022Z,3.88
2023-02-17T10:53:29.629Z,7.13
2023-02-17T10:56:02.471Z,5.88
2023-02-17T10:58:48.162Z,3.83
2023-02-17T11:01:15.208Z,3.97
2023-02-17T11:03:42.407Z,4.82
2023-02-17T11:06:15.727Z,6.70
2023-02-17T11:09:00.478Z,4.22
2023-02-17T11:11:30.477Z,4.72
2023-02-17T11:14:02.308Z,5.93
2023-02-17T11:16:33.566Z,5.70
2023-02-17T11:19:01.301Z,3.77
2023-02-17T11:21:30.342Z,8.05
2023-02-17T11:24:04.253Z,4.32
2023-02-17T11:26:33.938Z,6.05
2023-02-17T11:29:11.704Z,7.40
2023-02-17T11:31:59.233Z,3.88
2023-02-17T11:34:29.221Z,7.22
2023-02-17T11:37:01.337Z,6.28
2023-02-17T11:39:28.626Z,3.35
2023-02-17T11:41:55.765Z,4.82
2023-02-17T11:48:32.976Z,3.92
2023-02-17T11:51:21.617Z,4.85
2023-02-17T11:53:52.200Z,3.50
2023-02-17T11:56:30.297Z,5.82
2023-02-17T11:59:15.735Z,3.17
2023-02-17T12:01:51.691Z,3.47
2023-02-17T12:04:26.544Z,5.60
2023-02-17T12:07:02.965Z,7.63
2023-02-17T12:09:38.880Z,5.20
2023-02-17T12:12:24.847Z,3.50
2023-02-17T12:14:51.805Z,3.10
2023-02-17T12:17:26.354Z,6.45
2023-02-17T12:20:02.475Z,5.40
2023-02-17T12:22:33.583Z,5.72
2023-02-17T12:25:10.004Z,6.05
2023-02-17T12:27:44.825Z,5.90
2023-02-17T12:30:30.963Z,5.07
2023-02-17T12:33:10.686Z,5.35
2023-02-17T12:35:46.572Z,3.45
2023-02-17T12:38:17.855Z,4.88
2023-02-17T12:40:44.922Z,5.55
2023-02-17T12:43:23.542Z,3.78
2023-02-17T12:45:52.068Z,4.15
2023-02-17T12:48:24.769Z,4.55
2023-02-17T12:51:05.242Z,3.50
2023-02-17T12:53:40.746Z,2.60
2023-02-17T12:56:20.970Z,3.13
2023-02-17T12:58:50.352Z,5.80
2023-02-17T13:01:19.819Z,2.90
2023-02-17T13:03:46.917Z,3.33
2023-02-17T13:06:30.316Z,4.15
2023-02-17T13:08:59.663Z,6.17
2023-02-17T13:11:33.437Z,9.77
2023-02-17T13:14:15.115Z,4.47
2023-02-17T13:16:46.854Z,5.18
2023-02-17T13:19:16.099Z,9.03
2023-02-17T13:21:54.629Z,5.45
2023-02-17T13:24:36.234Z,3.58
2023-02-17T13:27:22.178Z,5.97
2023-02-17T13:30:09.939Z,5.60
2023-02-17T13:32:39.008Z,4.37
2023-02-17T13:35:06.086Z,4.07
2023-02-17T13:37:35.353Z,3.97
2023-02-17T13:40:03.152Z,3.15
2023-02-17T13:42:35.186Z,3.92
2023-02-17T13:45:12.443Z,3.88
2023-02-17T13:47:41.610Z,4.80
2023-02-17T13:50:27.884Z,5.22
2023-02-17T13:52:55.367Z,6.28
2023-02-17T13:55:24.048Z,6.32
2023-02-17T13:57:57.239Z,7.40
2023-02-17T14:00:25.609Z,5.40
2023-02-17T14:02:54.311Z,12.63
2023-02-17T14:05:21.343Z,7.60
2023-02-17T14:07:48.930Z,10.95
2023-02-17T14:10:18.975Z,11.05
2023-02-17T14:12:48.665Z,12.27
2023-02-17T14:15:17.042Z,71.55
2023-02-17T14:17:44.707Z,96.30
2023-02-17T14:20:30.265Z,82.03
2023-02-17T14:23:06.157Z,70.10
2023-02-17T14:25:37.368Z,65.03
2023-02-17T14:28:04.823Z,47.03
2023-02-17T14:30:34.351Z,41.95
